עמוד ראשי
METAR-TAF:

METAR-TAF

שדות תעופה :

Peace River, אלברטה, קנדה

קו רוחב: 56-14N, קו אורך: 117-26W, גובה: 571מטר

תצפית מזג אוויר נוכחית

הדו"ח נערך לפני 1 שעות ו 16דקות, בשעה 19:00 UTC
רוח 7קשר מכיוון צפון-מערב, משתנה בין מערב/צפון-מערב ו צפון
טמפרטורת 13 צלסיוס
לחות 41%
לחץ 1010 hPa
ראות: 24.1קילומטר
עננים בינוניים בגובה 7600רגל
עננים בינוניים בגובה 22000רגל

METAR: CYPE 171900Z 31007KT 290V010 15SM BKN076 BKN220 13/00 A2982 RMK CU6CI1 SLP114 DENSITY ALT 2200FT

זמן: 14:16 (20:16 UTC)

תחזית

הדו"ח נערך לפני 1 שעות ו 36דקות, בשעה 18:40 UTC
תחזית בתוקף מ 17 ב 19 UTC עד 18 ב 07 UTC
רוח 15קשר מכיוון צפון/צפון-מערב
ראות: 10קילומטר
עננים בינוניים בגובה 6000רגל
מ 17 ב 2300UTC
רוח 12קשר מכיוון צפון/צפון-מערב
ראות: 10קילומטר
עננים פזורים בגובה 7000רגל
עננים בינוניים בגובה 24000רגל

TAF: CYPE 171840Z 1719/1807 33015KT P6SM BKN060 FM172300 33012KT P6SM SCT070 BKN240 RMK NXT FCST BY 180100Z

תצפיות ותחזיות מזג אוויר לגבי יותר מ- 4,000 שדות תעופה ברחבי העולם. דוחות METAR ו- TAF.

התחנות הזמינות מסומנות בנקודות צהובות ואדומות על גבי המפה.

העבר את העכבר לנקודה הצבעונית על מנת לראות את שם התחנה.

לאחר מכן, לחץ כדי לראות את תוכן ואת תחזיות מזג האוויר.

כדי לשנות את המפה: לחץ על הכפתורים הירוקים עם הפלוס השחור כדי להתקרב; על הכפתור הירוק עם המקף כדי להתרחק; או בחיצים הירוקים למפות סמוכות.


METAR-TAF: